createdAt,value
2022-09-01T00:09:17.988Z,74.00
2022-09-01T00:19:26.064Z,74.23
2022-09-01T00:29:33.519Z,74.32
2022-09-01T00:39:40.599Z,74.48
2022-09-01T00:49:50.882Z,74.72
2022-09-01T01:00:02.015Z,74.88
2022-09-01T01:10:08.907Z,75.01
2022-09-01T01:20:36.668Z,75.21
2022-09-01T01:30:49.357Z,75.41
2022-09-01T01:40:56.480Z,75.57
2022-09-01T01:51:05.893Z,75.18
2022-09-01T02:01:13.275Z,75.34
2022-09-01T02:11:22.254Z,75.94
2022-09-01T02:21:30.139Z,76.09
2022-09-01T02:31:37.602Z,76.10
2022-09-01T02:41:44.736Z,75.80
2022-09-01T02:51:54.599Z,75.79
2022-09-01T03:02:01.810Z,76.01
2022-09-01T03:12:08.107Z,76.10
2022-09-01T03:22:15.287Z,76.32
2022-09-01T03:32:22.982Z,76.15
2022-09-01T03:42:31.152Z,76.24
2022-09-01T03:52:41.284Z,76.43
2022-09-01T04:02:48.063Z,76.60
2022-09-01T04:13:05.611Z,76.86
2022-09-01T04:23:13.302Z,77.02
2022-09-01T04:33:22.524Z,77.03
2022-09-01T04:43:29.565Z,77.18
2022-09-01T04:53:36.650Z,77.29
2022-09-01T05:13:53.149Z,77.60
2022-09-01T05:24:04.078Z,77.74
2022-09-01T05:34:13.853Z,77.96
2022-09-01T05:44:21.104Z,76.56
2022-09-01T05:54:29.410Z,76.34
2022-09-01T06:04:35.945Z,76.34
2022-09-01T06:14:43.142Z,75.36
2022-09-01T06:24:56.654Z,73.12
2022-09-01T06:35:07.401Z,71.73
2022-09-01T06:45:15.063Z,69.89
2022-09-01T06:55:22.039Z,70.86
2022-09-01T07:26:26.606Z,66.72
2022-09-01T07:42:59.280Z,66.21
2022-09-01T07:47:20.201Z,64.23
2022-09-01T07:57:32.239Z,63.21
2022-09-01T08:07:52.545Z,62.12
2022-09-01T08:18:00.172Z,61.46
2022-09-01T08:28:07.902Z,59.77
2022-09-01T08:38:14.919Z,58.20
2022-09-01T08:49:23.156Z,57.18
2022-09-01T08:58:54.439Z,54.42
2022-09-01T09:09:05.127Z,54.97
2022-09-01T09:19:12.557Z,54.90
2022-09-01T09:29:20.862Z,54.56
2022-09-01T09:39:26.267Z,53.45
2022-09-01T09:49:41.420Z,53.22
2022-09-01T10:00:00.921Z,49.76
2022-09-01T10:10:06.213Z,49.36
2022-09-01T10:20:18.385Z,49.97
2022-09-01T10:30:28.947Z,49.10
2022-09-01T10:40:43.401Z,48.91
2022-09-01T10:50:58.379Z,46.52
2022-09-01T11:01:15.578Z,47.32
2022-09-01T11:11:27.471Z,46.67
2022-09-01T11:31:41.255Z,46.25
2022-09-01T11:41:57.541Z,46.65
2022-09-01T11:52:05.648Z,46.05
2022-09-01T12:02:19.066Z,45.55
2022-09-01T12:12:33.750Z,45.74
2022-09-01T12:22:44.066Z,45.13
2022-09-01T12:32:51.973Z,46.84
2022-09-01T12:42:59.460Z,46.48
2022-09-01T12:53:16.099Z,45.46
2022-09-01T13:03:23.762Z,46.28
2022-09-01T13:13:31.578Z,46.93
2022-09-01T13:23:38.629Z,45.58
2022-09-01T13:44:13.165Z,45.86
2022-09-01T13:54:20.777Z,46.65
2022-09-01T14:04:26.879Z,45.01
2022-09-01T14:25:03.907Z,46.32
2022-09-01T14:35:12.129Z,46.69
2022-09-01T14:45:18.772Z,47.04
2022-09-01T14:55:23.954Z,45.76
2022-09-01T15:05:39.715Z,45.90
2022-09-01T15:15:47.323Z,46.06
2022-09-01T15:25:54.478Z,45.99
2022-09-01T15:36:00.497Z,46.68
2022-09-01T15:46:06.946Z,46.90
2022-09-01T15:56:14.014Z,47.11
2022-09-01T16:06:20.278Z,46.92
2022-09-01T16:16:40.144Z,47.39
2022-09-01T16:26:48.294Z,48.48
2022-09-01T16:36:55.838Z,49.51
2022-09-01T16:47:02.027Z,50.43
2022-09-01T16:57:12.329Z,51.02
2022-09-01T17:07:29.598Z,51.70
2022-09-01T17:17:34.752Z,52.41
2022-09-01T17:27:49.483Z,53.19
2022-09-01T17:38:12.257Z,53.78
2022-09-01T17:48:20.805Z,54.57
2022-09-01T17:58:30.117Z,55.12
2022-09-01T18:08:38.958Z,55.80
2022-09-01T18:18:48.759Z,56.61
2022-09-01T18:28:54.055Z,57.12
2022-09-01T18:39:08.229Z,57.52
2022-09-01T18:49:15.604Z,57.95
2022-09-01T18:59:36.974Z,58.63
2022-09-01T19:09:42.660Z,59.18
2022-09-01T19:19:53.033Z,59.72
2022-09-01T19:30:04.309Z,60.36
2022-09-01T19:40:11.722Z,60.81
2022-09-01T19:50:21.402Z,61.39
2022-09-01T20:00:36.394Z,62.09
2022-09-01T20:10:56.519Z,62.47
2022-09-01T20:21:09.489Z,62.85
2022-09-01T20:31:30.211Z,63.37
2022-09-01T20:41:39.673Z,63.72
2022-09-01T20:51:49.187Z,63.82
2022-09-01T21:01:58.888Z,64.02
2022-09-01T21:12:05.393Z,64.56
2022-09-01T21:22:18.461Z,64.71
2022-09-01T21:32:30.822Z,64.92
2022-09-01T21:42:42.501Z,65.19
2022-09-01T21:52:50.183Z,65.59
2022-09-01T22:02:57.325Z,65.91
2022-09-01T22:13:03.126Z,66.12
2022-09-01T22:23:10.949Z,66.31
2022-09-01T22:33:19.209Z,66.54
2022-09-01T22:43:27.549Z,66.78
2022-09-01T22:53:34.489Z,67.16
2022-09-01T23:03:42.721Z,67.53
2022-09-01T23:13:50.109Z,67.40
2022-09-01T23:23:59.067Z,67.79
2022-09-01T23:34:07.736Z,68.33
2022-09-01T23:44:16.163Z,68.52
2022-09-01T23:54:23.532Z,68.63
